sensor_id;sensor_type;location;lat;lon;timestamp;temperature;humidity
6792;DHT22;3433;48.730;9.108;2022-12-11T00:00:12;-0.20;99.90
6792;DHT22;3433;48.730;9.108;2022-12-11T00:03:00;-0.30;99.90
6792;DHT22;3433;48.730;9.108;2022-12-11T00:05:49;-0.30;99.90
6792;DHT22;3433;48.730;9.108;2022-12-11T00:08:36;-0.30;99.90
6792;DHT22;3433;48.730;9.108;2022-12-11T00:11:24;-0.30;99.90
6792;DHT22;3433;48.730;9.108;2022-12-11T00:14:11;-0.40;99.90
6792;DHT22;3433;48.730;9.108;2022-12-11T00:16:58;-0.40;99.90
6792;DHT22;3433;48.730;9.108;2022-12-11T00:19:46;-0.50;99.90
6792;DHT22;3433;48.730;9.108;2022-12-11T00:22:34;-0.50;99.90
6792;DHT22;3433;48.730;9.108;2022-12-11T00:25:22;-0.60;99.90
6792;DHT22;3433;48.730;9.108;2022-12-11T00:28:09;-0.60;99.90
6792;DHT22;3433;48.730;9.108;2022-12-11T00:30:56;-0.60;99.90
6792;DHT22;3433;48.730;9.108;2022-12-11T00:33:44;-0.70;99.90
6792;DHT22;3433;48.730;9.108;2022-12-11T00:36:34;-0.70;99.90
6792;DHT22;3433;48.730;9.108;2022-12-11T00:39:23;-0.70;99.90
6792;DHT22;3433;48.730;9.108;2022-12-11T00:42:10;-0.70;99.90
6792;DHT22;3433;48.730;9.108;2022-12-11T00:44:57;-0.70;99.90
6792;DHT22;3433;48.730;9.108;2022-12-11T00:47:45;-0.70;99.90
6792;DHT22;3433;48.730;9.108;2022-12-11T00:50:32;-0.70;99.90
6792;DHT22;3433;48.730;9.108;2022-12-11T00:53:19;-0.70;99.90
6792;DHT22;3433;48.730;9.108;2022-12-11T00:56:13;-0.70;99.90
6792;DHT22;3433;48.730;9.108;2022-12-11T00:59:00;-0.70;99.90
6792;DHT22;3433;48.730;9.108;2022-12-11T01:01:48;-0.70;99.90
6792;DHT22;3433;48.730;9.108;2022-12-11T01:04:35;-0.60;99.90
6792;DHT22;3433;48.730;9.108;2022-12-11T01:07:23;-0.50;99.90
6792;DHT22;3433;48.730;9.108;2022-12-11T01:10:14;-0.50;99.90
6792;DHT22;3433;48.730;9.108;2022-12-11T01:13:11;-0.40;99.90
6792;DHT22;3433;48.730;9.108;2022-12-11T01:15:59;-0.40;99.90
6792;DHT22;3433;48.730;9.108;2022-12-11T01:18:46;-0.30;99.90
6792;DHT22;3433;48.730;9.108;2022-12-11T01:21:33;-0.30;99.90
6792;DHT22;3433;48.730;9.108;2022-12-11T01:24:21;-0.20;99.90
6792;DHT22;3433;48.730;9.108;2022-12-11T01:27:08;-0.10;99.90
6792;DHT22;3433;48.730;9.108;2022-12-11T01:29:57;-0.20;99.90
6792;DHT22;3433;48.730;9.108;2022-12-11T01:32:44;-0.10;99.90
6792;DHT22;3433;48.730;9.108;2022-12-11T01:35:31;-0.10;99.90
6792;DHT22;3433;48.730;9.108;2022-12-11T01:38:18;-0.10;99.90
6792;DHT22;3433;48.730;9.108;2022-12-11T01:41:06;0.00;99.90
6792;DHT22;3433;48.730;9.108;2022-12-11T01:43:55;0.00;99.90
6792;DHT22;3433;48.730;9.108;2022-12-11T01:46:44;0.00;99.90
6792;DHT22;3433;48.730;9.108;2022-12-11T01:49:31;0.10;99.90
6792;DHT22;3433;48.730;9.108;2022-12-11T01:52:20;0.00;99.90
6792;DHT22;3433;48.730;9.108;2022-12-11T01:55:08;0.10;99.90
6792;DHT22;3433;48.730;9.108;2022-12-11T01:57:55;0.10;99.90
6792;DHT22;3433;48.730;9.108;2022-12-11T02:00:43;0.20;99.90
6792;DHT22;3433;48.730;9.108;2022-12-11T02:03:31;0.20;99.90
6792;DHT22;3433;48.730;9.108;2022-12-11T02:06:36;0.30;99.90
6792;DHT22;3433;48.730;9.108;2022-12-11T02:09:26;0.30;99.90
6792;DHT22;3433;48.730;9.108;2022-12-11T02:12:21;0.40;99.90
6792;DHT22;3433;48.730;9.108;2022-12-11T02:15:16;0.40;99.90
6792;DHT22;3433;48.730;9.108;2022-12-11T02:18:12;0.40;99.90
6792;DHT22;3433;48.730;9.108;2022-12-11T02:21:07;0.50;99.90
6792;DHT22;3433;48.730;9.108;2022-12-11T02:24:08;0.50;99.90
6792;DHT22;3433;48.730;9.108;2022-12-11T02:27:16;0.50;99.90
6792;DHT22;3433;48.730;9.108;2022-12-11T02:30:09;0.60;99.90
6792;DHT22;3433;48.730;9.108;2022-12-11T02:32:57;0.60;99.90
6792;DHT22;3433;48.730;9.108;2022-12-11T02:35:45;0.60;99.90
6792;DHT22;3433;48.730;9.108;2022-12-11T02:38:37;0.60;99.90
6792;DHT22;3433;48.730;9.108;2022-12-11T02:41:25;0.60;99.90
6792;DHT22;3433;48.730;9.108;2022-12-11T02:44:16;0.60;99.90
6792;DHT22;3433;48.730;9.108;2022-12-11T02:47:09;0.70;99.90
6792;DHT22;3433;48.730;9.108;2022-12-11T02:49:59;0.70;99.90
6792;DHT22;3433;48.730;9.108;2022-12-11T02:52:49;0.80;99.90
6792;DHT22;3433;48.730;9.108;2022-12-11T02:55:41;0.80;99.90
6792;DHT22;3433;48.730;9.108;2022-12-11T02:58:31;0.80;99.90
6792;DHT22;3433;48.730;9.108;2022-12-11T03:01:19;0.80;99.90
6792;DHT22;3433;48.730;9.108;2022-12-11T03:04:08;0.80;99.90
6792;DHT22;3433;48.730;9.108;2022-12-11T03:06:58;0.80;99.90
6792;DHT22;3433;48.730;9.108;2022-12-11T03:09:56;0.90;99.90
6792;DHT22;3433;48.730;9.108;2022-12-11T03:12:46;0.90;99.90
6792;DHT22;3433;48.730;9.108;2022-12-11T03:15:43;0.90;99.90
6792;DHT22;3433;48.730;9.108;2022-12-11T03:18:38;0.90;99.90
6792;DHT22;3433;48.730;9.108;2022-12-11T03:21:32;0.90;99.90
6792;DHT22;3433;48.730;9.108;2022-12-11T03:24:24;0.90;99.90
6792;DHT22;3433;48.730;9.108;2022-12-11T03:27:17;0.90;99.90
6792;DHT22;3433;48.730;9.108;2022-12-11T03:30:10;0.90;99.90
6792;DHT22;3433;48.730;9.108;2022-12-11T03:33:02;0.80;99.90
6792;DHT22;3433;48.730;9.108;2022-12-11T03:35:53;0.80;99.90
6792;DHT22;3433;48.730;9.108;2022-12-11T03:38:47;0.90;99.90
6792;DHT22;3433;48.730;9.108;2022-12-11T03:41:37;0.90;99.90
6792;DHT22;3433;48.730;9.108;2022-12-11T03:44:26;0.90;99.90
6792;DHT22;3433;48.730;9.108;2022-12-11T03:47:16;0.90;99.90
6792;DHT22;3433;48.730;9.108;2022-12-11T03:50:06;0.90;99.90
6792;DHT22;3433;48.730;9.108;2022-12-11T03:52:55;0.80;99.90
6792;DHT22;3433;48.730;9.108;2022-12-11T03:55:45;0.80;99.90
6792;DHT22;3433;48.730;9.108;2022-12-11T03:58:34;0.80;99.90
6792;DHT22;3433;48.730;9.108;2022-12-11T04:01:21;0.80;99.90
6792;DHT22;3433;48.730;9.108;2022-12-11T04:04:08;0.90;99.90
6792;DHT22;3433;48.730;9.108;2022-12-11T04:06:56;0.90;99.90
6792;DHT22;3433;48.730;9.108;2022-12-11T04:09:43;0.90;99.90
6792;DHT22;3433;48.730;9.108;2022-12-11T04:12:32;0.80;99.90
6792;DHT22;3433;48.730;9.108;2022-12-11T04:15:19;0.80;99.90
6792;DHT22;3433;48.730;9.108;2022-12-11T04:18:07;0.80;99.90
6792;DHT22;3433;48.730;9.108;2022-12-11T04:21:12;0.80;99.90
6792;DHT22;3433;48.730;9.108;2022-12-11T04:24:16;0.80;99.90
6792;DHT22;3433;48.730;9.108;2022-12-11T04:27:03;0.80;99.90
6792;DHT22;3433;48.730;9.108;2022-12-11T04:29:52;0.80;99.90
6792;DHT22;3433;48.730;9.108;2022-12-11T04:32:39;0.80;99.90
6792;DHT22;3433;48.730;9.108;2022-12-11T04:35:27;0.80;99.90
6792;DHT22;3433;48.730;9.108;2022-12-11T04:38:14;0.70;99.90
6792;DHT22;3433;48.730;9.108;2022-12-11T04:41:04;0.70;99.90
6792;DHT22;3433;48.730;9.108;2022-12-11T04:43:52;0.70;99.90
6792;DHT22;3433;48.730;9.108;2022-12-11T04:46:40;0.70;99.90
6792;DHT22;3433;48.730;9.108;2022-12-11T04:49:28;0.70;99.90
6792;DHT22;3433;48.730;9.108;2022-12-11T04:52:16;0.70;99.90
6792;DHT22;3433;48.730;9.108;2022-12-11T04:55:04;0.70;99.90
6792;DHT22;3433;48.730;9.108;2022-12-11T04:57:51;0.70;99.90
6792;DHT22;3433;48.730;9.108;2022-12-11T05:00:39;0.70;99.90
6792;DHT22;3433;48.730;9.108;2022-12-11T05:03:28;0.70;99.90
6792;DHT22;3433;48.730;9.108;2022-12-11T05:06:15;0.70;99.90
6792;DHT22;3433;48.730;9.108;2022-12-11T05:09:03;0.60;99.90
6792;DHT22;3433;48.730;9.108;2022-12-11T05:11:50;0.60;99.90
6792;DHT22;3433;48.730;9.108;2022-12-11T05:14:38;0.40;99.90
6792;DHT22;3433;48.730;9.108;2022-12-11T05:17:25;0.50;99.90
6792;DHT22;3433;48.730;9.108;2022-12-11T05:20:14;0.50;99.90
6792;DHT22;3433;48.730;9.108;2022-12-11T05:23:01;0.60;99.90
6792;DHT22;3433;48.730;9.108;2022-12-11T05:25:51;0.50;99.90
6792;DHT22;3433;48.730;9.108;2022-12-11T05:28:39;0.50;99.90
6792;DHT22;3433;48.730;9.108;2022-12-11T05:31:27;0.50;99.90
6792;DHT22;3433;48.730;9.108;2022-12-11T05:34:14;0.70;99.90
6792;DHT22;3433;48.730;9.108;2022-12-11T05:37:02;0.50;99.90
6792;DHT22;3433;48.730;9.108;2022-12-11T05:39:50;0.40;99.90
6792;DHT22;3433;48.730;9.108;2022-12-11T05:42:37;0.30;99.90
6792;DHT22;3433;48.730;9.108;2022-12-11T05:45:25;0.20;99.90
6792;DHT22;3433;48.730;9.108;2022-12-11T05:48:12;0.20;99.90
6792;DHT22;3433;48.730;9.108;2022-12-11T05:51:00;0.00;99.90
6792;DHT22;3433;48.730;9.108;2022-12-11T05:53:51;0.20;99.90
6792;DHT22;3433;48.730;9.108;2022-12-11T05:56:38;0.20;99.90
6792;DHT22;3433;48.730;9.108;2022-12-11T05:59:25;0.30;99.90
6792;DHT22;3433;48.730;9.108;2022-12-11T06:02:13;0.30;99.90
6792;DHT22;3433;48.730;9.108;2022-12-11T06:05:00;0.30;99.90
6792;DHT22;3433;48.730;9.108;2022-12-11T06:07:47;0.20;99.90
6792;DHT22;3433;48.730;9.108;2022-12-11T06:10:36;0.20;99.90
6792;DHT22;3433;48.730;9.108;2022-12-11T06:13:24;0.10;99.90
6792;DHT22;3433;48.730;9.108;2022-12-11T06:16:11;0.20;99.90
6792;DHT22;3433;48.730;9.108;2022-12-11T06:18:59;0.20;99.90
6792;DHT22;3433;48.730;9.108;2022-12-11T06:21:46;0.20;99.90
6792;DHT22;3433;48.730;9.108;2022-12-11T06:24:34;0.20;99.90
6792;DHT22;3433;48.730;9.108;2022-12-11T06:27:23;0.10;99.90
6792;DHT22;3433;48.730;9.108;2022-12-11T06:30:11;0.00;99.90
6792;DHT22;3433;48.730;9.108;2022-12-11T06:32:58;0.00;99.90
6792;DHT22;3433;48.730;9.108;2022-12-11T06:35:45;0.00;99.90
6792;DHT22;3433;48.730;9.108;2022-12-11T06:38:33;0.00;99.90
6792;DHT22;3433;48.730;9.108;2022-12-11T06:41:20;0.00;99.90
6792;DHT22;3433;48.730;9.108;2022-12-11T06:44:09;0.00;99.90
6792;DHT22;3433;48.730;9.108;2022-12-11T06:46:57;0.00;99.90
6792;DHT22;3433;48.730;9.108;2022-12-11T06:49:45;-0.10;99.90
6792;DHT22;3433;48.730;9.108;2022-12-11T06:52:33;-0.10;99.90
6792;DHT22;3433;48.730;9.108;2022-12-11T06:55:21;-0.20;99.90
6792;DHT22;3433;48.730;9.108;2022-12-11T06:58:09;-0.30;99.90
6792;DHT22;3433;48.730;9.108;2022-12-11T07:00:58;-0.20;99.90
6792;DHT22;3433;48.730;9.108;2022-12-11T07:03:46;-0.30;99.90
6792;DHT22;3433;48.730;9.108;2022-12-11T07:06:34;-0.30;99.90
6792;DHT22;3433;48.730;9.108;2022-12-11T07:09:21;-0.30;99.90
6792;DHT22;3433;48.730;9.108;2022-12-11T07:12:09;-0.30;99.90
6792;DHT22;3433;48.730;9.108;2022-12-11T07:14:56;-0.40;99.90
6792;DHT22;3433;48.730;9.108;2022-12-11T07:17:45;-0.40;99.90
6792;DHT22;3433;48.730;9.108;2022-12-11T07:20:33;-0.40;99.90
6792;DHT22;3433;48.730;9.108;2022-12-11T07:23:20;-0.40;99.90
6792;DHT22;3433;48.730;9.108;2022-12-11T07:26:09;-0.40;99.90
6792;DHT22;3433;48.730;9.108;2022-12-11T07:28:58;-0.40;99.90
6792;DHT22;3433;48.730;9.108;2022-12-11T07:31:45;-0.50;99.90
6792;DHT22;3433;48.730;9.108;2022-12-11T07:34:34;-0.50;99.90
6792;DHT22;3433;48.730;9.108;2022-12-11T07:37:22;-0.50;99.90
6792;DHT22;3433;48.730;9.108;2022-12-11T07:40:10;-0.40;99.90
6792;DHT22;3433;48.730;9.108;2022-12-11T07:42:58;-0.40;99.90
6792;DHT22;3433;48.730;9.108;2022-12-11T07:45:46;-0.40;99.90
6792;DHT22;3433;48.730;9.108;2022-12-11T07:48:34;-0.30;99.90
6792;DHT22;3433;48.730;9.108;2022-12-11T07:51:26;-0.40;99.90
6792;DHT22;3433;48.730;9.108;2022-12-11T07:54:14;-0.30;99.90
6792;DHT22;3433;48.730;9.108;2022-12-11T07:57:02;-0.30;99.90
6792;DHT22;3433;48.730;9.108;2022-12-11T07:59:50;-0.30;99.90
6792;DHT22;3433;48.730;9.108;2022-12-11T08:02:37;-0.20;99.90
6792;DHT22;3433;48.730;9.108;2022-12-11T08:05:24;-0.20;99.90
6792;DHT22;3433;48.730;9.108;2022-12-11T08:08:13;-0.10;99.90
6792;DHT22;3433;48.730;9.108;2022-12-11T08:11:01;0.00;99.90
6792;DHT22;3433;48.730;9.108;2022-12-11T08:13:48;0.10;99.90
6792;DHT22;3433;48.730;9.108;2022-12-11T08:16:36;0.20;99.90
6792;DHT22;3433;48.730;9.108;2022-12-11T08:19:27;0.30;99.90
6792;DHT22;3433;48.730;9.108;2022-12-11T08:22:15;0.40;99.90
6792;DHT22;3433;48.730;9.108;2022-12-11T08:25:08;0.40;99.90
6792;DHT22;3433;48.730;9.108;2022-12-11T08:27:55;0.40;99.90
6792;DHT22;3433;48.730;9.108;2022-12-11T08:30:42;0.50;99.90
6792;DHT22;3433;48.730;9.108;2022-12-11T08:33:30;0.60;99.90
6792;DHT22;3433;48.730;9.108;2022-12-11T08:36:19;0.40;99.90
6792;DHT22;3433;48.730;9.108;2022-12-11T08:39:07;0.80;99.90
6792;DHT22;3433;48.730;9.108;2022-12-11T08:41:55;0.90;99.90
6792;DHT22;3433;48.730;9.108;2022-12-11T08:44:43;0.90;99.90
6792;DHT22;3433;48.730;9.108;2022-12-11T08:47:30;1.00;99.90
6792;DHT22;3433;48.730;9.108;2022-12-11T08:50:18;1.10;99.90
6792;DHT22;3433;48.730;9.108;2022-12-11T08:53:05;1.10;99.90
6792;DHT22;3433;48.730;9.108;2022-12-11T08:55:52;1.20;99.90
6792;DHT22;3433;48.730;9.108;2022-12-11T08:58:41;1.20;99.90
6792;DHT22;3433;48.730;9.108;2022-12-11T09:01:28;1.30;99.90
6792;DHT22;3433;48.730;9.108;2022-12-11T09:04:16;1.30;99.90
6792;DHT22;3433;48.730;9.108;2022-12-11T09:07:03;1.30;99.90
6792;DHT22;3433;48.730;9.108;2022-12-11T09:09:52;1.30;99.90
6792;DHT22;3433;48.730;9.108;2022-12-11T09:12:40;1.40;99.90
6792;DHT22;3433;48.730;9.108;2022-12-11T09:15:28;1.40;99.90
6792;DHT22;3433;48.730;9.108;2022-12-11T09:18:16;1.40;99.90
6792;DHT22;3433;48.730;9.108;2022-12-11T09:21:05;1.40;99.90
6792;DHT22;3433;48.730;9.108;2022-12-11T09:23:53;1.40;99.90
6792;DHT22;3433;48.730;9.108;2022-12-11T09:26:41;1.50;99.90
6792;DHT22;3433;48.730;9.108;2022-12-11T09:29:28;1.50;99.90
6792;DHT22;3433;48.730;9.108;2022-12-11T09:32:16;1.50;99.90
6792;DHT22;3433;48.730;9.108;2022-12-11T09:35:04;1.50;99.90
6792;DHT22;3433;48.730;9.108;2022-12-11T09:37:52;1.50;99.90
6792;DHT22;3433;48.730;9.108;2022-12-11T09:40:40;1.60;99.90
6792;DHT22;3433;48.730;9.108;2022-12-11T09:43:35;1.60;99.90
6792;DHT22;3433;48.730;9.108;2022-12-11T09:46:23;1.70;99.90
6792;DHT22;3433;48.730;9.108;2022-12-11T09:49:28;1.70;99.90
6792;DHT22;3433;48.730;9.108;2022-12-11T09:52:24;1.70;99.90
6792;DHT22;3433;48.730;9.108;2022-12-11T09:55:17;1.70;99.90
6792;DHT22;3433;48.730;9.108;2022-12-11T09:58:12;1.70;99.90
6792;DHT22;3433;48.730;9.108;2022-12-11T10:01:06;1.80;99.90
6792;DHT22;3433;48.730;9.108;2022-12-11T10:04:04;1.80;99.90
6792;DHT22;3433;48.730;9.108;2022-12-11T10:07:07;2.20;99.90
6792;DHT22;3433;48.730;9.108;2022-12-11T10:10:00;2.40;99.90
6792;DHT22;3433;48.730;9.108;2022-12-11T10:12:56;2.40;99.90
6792;DHT22;3433;48.730;9.108;2022-12-11T10:15:50;2.30;99.90
6792;DHT22;3433;48.730;9.108;2022-12-11T10:18:39;2.30;99.90
6792;DHT22;3433;48.730;9.108;2022-12-11T10:21:30;2.30;99.90
6792;DHT22;3433;48.730;9.108;2022-12-11T10:24:25;2.40;99.90
6792;DHT22;3433;48.730;9.108;2022-12-11T10:27:17;2.30;99.90
6792;DHT22;3433;48.730;9.108;2022-12-11T10:30:13;2.40;99.90
6792;DHT22;3433;48.730;9.108;2022-12-11T10:33:05;2.40;99.90
6792;DHT22;3433;48.730;9.108;2022-12-11T10:35:58;2.40;99.90
6792;DHT22;3433;48.730;9.108;2022-12-11T10:38:45;2.40;99.90
6792;DHT22;3433;48.730;9.108;2022-12-11T10:41:36;2.40;99.90
6792;DHT22;3433;48.730;9.108;2022-12-11T10:44:26;2.40;99.90
6792;DHT22;3433;48.730;9.108;2022-12-11T10:47:17;2.40;99.90
6792;DHT22;3433;48.730;9.108;2022-12-11T10:50:05;2.40;99.90
6792;DHT22;3433;48.730;9.108;2022-12-11T10:52:52;2.50;99.90
6792;DHT22;3433;48.730;9.108;2022-12-11T10:55:43;2.50;99.90
6792;DHT22;3433;48.730;9.108;2022-12-11T10:58:37;2.50;99.90
6792;DHT22;3433;48.730;9.108;2022-12-11T11:01:28;2.50;99.90
6792;DHT22;3433;48.730;9.108;2022-12-11T11:04:20;2.50;99.90
6792;DHT22;3433;48.730;9.108;2022-12-11T11:07:12;2.50;99.90
6792;DHT22;3433;48.730;9.108;2022-12-11T11:10:05;2.50;99.90
6792;DHT22;3433;48.730;9.108;2022-12-11T11:13:00;2.60;99.90
6792;DHT22;3433;48.730;9.108;2022-12-11T11:15:56;2.60;99.90
6792;DHT22;3433;48.730;9.108;2022-12-11T11:18:49;2.60;99.90
6792;DHT22;3433;48.730;9.108;2022-12-11T11:21:49;2.70;99.90
6792;DHT22;3433;48.730;9.108;2022-12-11T11:24:39;2.70;99.90
6792;DHT22;3433;48.730;9.108;2022-12-11T11:27:32;2.80;99.90
6792;DHT22;3433;48.730;9.108;2022-12-11T11:30:22;2.80;99.90
6792;DHT22;3433;48.730;9.108;2022-12-11T11:33:13;2.70;99.90
6792;DHT22;3433;48.730;9.108;2022-12-11T11:36:03;2.70;99.90
6792;DHT22;3433;48.730;9.108;2022-12-11T11:39:02;2.70;99.90
6792;DHT22;3433;48.730;9.108;2022-12-11T11:41:57;2.50;99.90
6792;DHT22;3433;48.730;9.108;2022-12-11T11:44:55;2.60;99.90
6792;DHT22;3433;48.730;9.108;2022-12-11T11:47:52;2.50;99.90
6792;DHT22;3433;48.730;9.108;2022-12-11T11:50:45;2.60;99.90
6792;DHT22;3433;48.730;9.108;2022-12-11T11:53:36;2.80;99.90
6792;DHT22;3433;48.730;9.108;2022-12-11T11:56:28;2.90;99.90
6792;DHT22;3433;48.730;9.108;2022-12-11T11:59:23;3.00;99.90
6792;DHT22;3433;48.730;9.108;2022-12-11T12:02:14;3.00;99.90
6792;DHT22;3433;48.730;9.108;2022-12-11T12:05:02;3.30;99.90
6792;DHT22;3433;48.730;9.108;2022-12-11T12:08:00;3.20;99.90
6792;DHT22;3433;48.730;9.108;2022-12-11T12:10:55;3.20;99.90
6792;DHT22;3433;48.730;9.108;2022-12-11T12:13:48;3.20;99.90
6792;DHT22;3433;48.730;9.108;2022-12-11T12:16:47;3.30;99.90
6792;DHT22;3433;48.730;9.108;2022-12-11T12:19:48;3.30;99.90
6792;DHT22;3433;48.730;9.108;2022-12-11T12:22:53;3.20;99.90
6792;DHT22;3433;48.730;9.108;2022-12-11T12:25:47;3.10;99.90
6792;DHT22;3433;48.730;9.108;2022-12-11T12:28:43;3.10;99.90
6792;DHT22;3433;48.730;9.108;2022-12-11T12:31:52;3.00;99.90
6792;DHT22;3433;48.730;9.108;2022-12-11T12:35:02;3.00;99.90
6792;DHT22;3433;48.730;9.108;2022-12-11T12:37:57;2.90;99.90
6792;DHT22;3433;48.730;9.108;2022-12-11T12:40:52;2.80;99.90
6792;DHT22;3433;48.730;9.108;2022-12-11T12:43:50;3.00;99.90
6792;DHT22;3433;48.730;9.108;2022-12-11T12:46:53;3.20;99.90
6792;DHT22;3433;48.730;9.108;2022-12-11T12:49:44;3.20;99.90
6792;DHT22;3433;48.730;9.108;2022-12-11T12:52:33;3.30;99.90
6792;DHT22;3433;48.730;9.108;2022-12-11T12:55:24;3.50;99.90
6792;DHT22;3433;48.730;9.108;2022-12-11T12:58:25;3.60;99.90
6792;DHT22;3433;48.730;9.108;2022-12-11T13:01:16;3.60;99.90
6792;DHT22;3433;48.730;9.108;2022-12-11T13:04:05;3.70;99.90
6792;DHT22;3433;48.730;9.108;2022-12-11T13:06:53;3.50;99.90
6792;DHT22;3433;48.730;9.108;2022-12-11T13:09:41;3.30;99.90
6792;DHT22;3433;48.730;9.108;2022-12-11T13:12:38;3.20;99.90
6792;DHT22;3433;48.730;9.108;2022-12-11T13:15:33;3.20;99.90
6792;DHT22;3433;48.730;9.108;2022-12-11T13:18:32;3.10;99.90
6792;DHT22;3433;48.730;9.108;2022-12-11T13:21:29;2.90;99.90
6792;DHT22;3433;48.730;9.108;2022-12-11T13:24:24;2.80;99.90
6792;DHT22;3433;48.730;9.108;2022-12-11T13:27:22;2.90;99.90
6792;DHT22;3433;48.730;9.108;2022-12-11T13:30:22;2.70;99.90
6792;DHT22;3433;48.730;9.108;2022-12-11T13:33:14;2.70;99.90
6792;DHT22;3433;48.730;9.108;2022-12-11T13:36:28;2.70;99.90
6792;DHT22;3433;48.730;9.108;2022-12-11T13:39:18;2.70;99.90
6792;DHT22;3433;48.730;9.108;2022-12-11T13:42:17;2.60;99.90
6792;DHT22;3433;48.730;9.108;2022-12-11T13:45:20;2.60;99.90
6792;DHT22;3433;48.730;9.108;2022-12-11T13:48:17;2.50;99.90
6792;DHT22;3433;48.730;9.108;2022-12-11T13:51:05;2.50;99.90
6792;DHT22;3433;48.730;9.108;2022-12-11T13:54:04;2.60;99.90
6792;DHT22;3433;48.730;9.108;2022-12-11T13:56:58;2.50;99.90
6792;DHT22;3433;48.730;9.108;2022-12-11T13:59:48;2.50;99.90
6792;DHT22;3433;48.730;9.108;2022-12-11T14:02:39;2.50;99.90
6792;DHT22;3433;48.730;9.108;2022-12-11T14:05:27;2.60;99.90
6792;DHT22;3433;48.730;9.108;2022-12-11T14:08:20;2.50;99.90
6792;DHT22;3433;48.730;9.108;2022-12-11T14:11:15;2.50;99.90
6792;DHT22;3433;48.730;9.108;2022-12-11T14:14:07;2.40;99.90
6792;DHT22;3433;48.730;9.108;2022-12-11T14:16:55;2.40;99.90
6792;DHT22;3433;48.730;9.108;2022-12-11T14:19:46;2.40;99.90
6792;DHT22;3433;48.730;9.108;2022-12-11T14:22:34;2.30;99.90
6792;DHT22;3433;48.730;9.108;2022-12-11T14:25:24;2.30;99.90
6792;DHT22;3433;48.730;9.108;2022-12-11T14:28:14;2.30;99.90
6792;DHT22;3433;48.730;9.108;2022-12-11T14:31:03;2.30;99.90
6792;DHT22;3433;48.730;9.108;2022-12-11T14:33:55;2.30;99.90
6792;DHT22;3433;48.730;9.108;2022-12-11T14:36:46;2.30;99.90
6792;DHT22;3433;48.730;9.108;2022-12-11T14:39:36;2.30;99.90
6792;DHT22;3433;48.730;9.108;2022-12-11T14:42:27;2.30;99.90
6792;DHT22;3433;48.730;9.108;2022-12-11T14:45:19;2.10;99.90
6792;DHT22;3433;48.730;9.108;2022-12-11T14:48:13;2.20;99.90
6792;DHT22;3433;48.730;9.108;2022-12-11T14:51:04;2.20;99.90
6792;DHT22;3433;48.730;9.108;2022-12-11T14:53:54;2.10;99.90
6792;DHT22;3433;48.730;9.108;2022-12-11T14:56:43;2.10;99.90
6792;DHT22;3433;48.730;9.108;2022-12-11T14:59:37;2.10;99.90
6792;DHT22;3433;48.730;9.108;2022-12-11T15:02:29;2.10;99.90
6792;DHT22;3433;48.730;9.108;2022-12-11T15:05:18;1.90;99.90
6792;DHT22;3433;48.730;9.108;2022-12-11T15:08:17;1.90;99.90
6792;DHT22;3433;48.730;9.108;2022-12-11T15:11:12;1.80;99.90
6792;DHT22;3433;48.730;9.108;2022-12-11T15:14:02;1.80;99.90
6792;DHT22;3433;48.730;9.108;2022-12-11T15:16:52;1.90;99.90
6792;DHT22;3433;48.730;9.108;2022-12-11T15:19:40;1.80;99.90
6792;DHT22;3433;48.730;9.108;2022-12-11T15:22:33;1.80;99.90
6792;DHT22;3433;48.730;9.108;2022-12-11T15:25:23;1.80;99.90
6792;DHT22;3433;48.730;9.108;2022-12-11T15:28:26;1.70;99.90
6792;DHT22;3433;48.730;9.108;2022-12-11T15:31:23;1.60;99.90
6792;DHT22;3433;48.730;9.108;2022-12-11T15:34:21;1.60;99.90
6792;DHT22;3433;48.730;9.108;2022-12-11T15:37:17;1.60;99.90
6792;DHT22;3433;48.730;9.108;2022-12-11T15:40:05;1.50;99.90
6792;DHT22;3433;48.730;9.108;2022-12-11T15:42:54;1.50;99.90
6792;DHT22;3433;48.730;9.108;2022-12-11T15:45:42;1.50;99.90
6792;DHT22;3433;48.730;9.108;2022-12-11T15:48:30;1.40;99.90
6792;DHT22;3433;48.730;9.108;2022-12-11T15:51:17;1.40;99.90
6792;DHT22;3433;48.730;9.108;2022-12-11T15:54:04;1.40;99.90
6792;DHT22;3433;48.730;9.108;2022-12-11T15:56:51;1.40;99.90
6792;DHT22;3433;48.730;9.108;2022-12-11T15:59:39;1.30;99.90
6792;DHT22;3433;48.730;9.108;2022-12-11T16:02:27;1.30;99.90
6792;DHT22;3433;48.730;9.108;2022-12-11T16:05:15;1.30;99.90
6792;DHT22;3433;48.730;9.108;2022-12-11T16:08:03;1.30;99.90
6792;DHT22;3433;48.730;9.108;2022-12-11T16:10:52;1.20;99.90
6792;DHT22;3433;48.730;9.108;2022-12-11T16:13:39;1.30;99.90
6792;DHT22;3433;48.730;9.108;2022-12-11T16:16:27;1.30;99.90
6792;DHT22;3433;48.730;9.108;2022-12-11T16:19:15;1.30;99.90
6792;DHT22;3433;48.730;9.108;2022-12-11T16:22:03;1.20;99.90
6792;DHT22;3433;48.730;9.108;2022-12-11T16:24:52;1.30;99.90
6792;DHT22;3433;48.730;9.108;2022-12-11T16:27:39;1.30;99.90
6792;DHT22;3433;48.730;9.108;2022-12-11T16:30:27;1.20;99.90
6792;DHT22;3433;48.730;9.108;2022-12-11T16:33:15;1.30;99.90
6792;DHT22;3433;48.730;9.108;2022-12-11T16:36:11;1.40;99.90
6792;DHT22;3433;48.730;9.108;2022-12-11T16:38:58;1.30;99.90
6792;DHT22;3433;48.730;9.108;2022-12-11T16:41:45;1.30;99.90
6792;DHT22;3433;48.730;9.108;2022-12-11T16:44:32;1.30;99.90
6792;DHT22;3433;48.730;9.108;2022-12-11T16:47:20;1.30;99.90
6792;DHT22;3433;48.730;9.108;2022-12-11T16:50:08;1.30;99.90
6792;DHT22;3433;48.730;9.108;2022-12-11T16:52:57;1.30;99.90
6792;DHT22;3433;48.730;9.108;2022-12-11T16:55:44;1.20;99.90
6792;DHT22;3433;48.730;9.108;2022-12-11T16:58:32;1.20;99.90
6792;DHT22;3433;48.730;9.108;2022-12-11T17:01:19;1.20;99.90
6792;DHT22;3433;48.730;9.108;2022-12-11T17:04:06;1.20;99.90
6792;DHT22;3433;48.730;9.108;2022-12-11T17:06:53;1.30;99.90
6792;DHT22;3433;48.730;9.108;2022-12-11T17:09:42;1.30;99.90
6792;DHT22;3433;48.730;9.108;2022-12-11T17:12:30;1.30;99.90
6792;DHT22;3433;48.730;9.108;2022-12-11T17:15:17;1.30;99.90
6792;DHT22;3433;48.730;9.108;2022-12-11T17:18:04;1.30;99.90
6792;DHT22;3433;48.730;9.108;2022-12-11T17:20:51;1.30;99.90
6792;DHT22;3433;48.730;9.108;2022-12-11T17:23:39;1.30;99.90
6792;DHT22;3433;48.730;9.108;2022-12-11T17:26:28;1.30;99.90
6792;DHT22;3433;48.730;9.108;2022-12-11T17:29:15;1.30;99.90
6792;DHT22;3433;48.730;9.108;2022-12-11T17:32:02;1.30;99.90
6792;DHT22;3433;48.730;9.108;2022-12-11T17:34:50;1.30;99.90
6792;DHT22;3433;48.730;9.108;2022-12-11T17:37:37;1.30;99.90
6792;DHT22;3433;48.730;9.108;2022-12-11T17:40:24;1.30;99.90
6792;DHT22;3433;48.730;9.108;2022-12-11T17:43:13;1.20;99.90
6792;DHT22;3433;48.730;9.108;2022-12-11T17:46:00;1.30;99.90
6792;DHT22;3433;48.730;9.108;2022-12-11T17:48:48;1.20;99.90
6792;DHT22;3433;48.730;9.108;2022-12-11T17:51:35;1.20;99.90
6792;DHT22;3433;48.730;9.108;2022-12-11T17:54:23;1.20;99.90
6792;DHT22;3433;48.730;9.108;2022-12-11T17:57:10;1.20;99.90
6792;DHT22;3433;48.730;9.108;2022-12-11T17:59:59;1.20;99.90
6792;DHT22;3433;48.730;9.108;2022-12-11T18:02:46;1.10;99.90
6792;DHT22;3433;48.730;9.108;2022-12-11T18:05:34;1.10;99.90
6792;DHT22;3433;48.730;9.108;2022-12-11T18:08:22;1.10;99.90
6792;DHT22;3433;48.730;9.108;2022-12-11T18:11:13;1.10;99.90
6792;DHT22;3433;48.730;9.108;2022-12-11T18:14:01;1.10;99.90
6792;DHT22;3433;48.730;9.108;2022-12-11T18:16:49;1.10;99.90
6792;DHT22;3433;48.730;9.108;2022-12-11T18:19:37;1.00;99.90
6792;DHT22;3433;48.730;9.108;2022-12-11T18:22:25;1.00;99.90
6792;DHT22;3433;48.730;9.108;2022-12-11T18:25:12;1.00;99.90
6792;DHT22;3433;48.730;9.108;2022-12-11T18:27:59;1.00;99.90
6792;DHT22;3433;48.730;9.108;2022-12-11T18:30:47;1.00;99.90
6792;DHT22;3433;48.730;9.108;2022-12-11T18:33:37;1.00;99.90
6792;DHT22;3433;48.730;9.108;2022-12-11T18:36:25;1.10;99.90
6792;DHT22;3433;48.730;9.108;2022-12-11T18:39:12;1.10;99.90
6792;DHT22;3433;48.730;9.108;2022-12-11T18:42:00;1.00;99.90
6792;DHT22;3433;48.730;9.108;2022-12-11T18:44:47;1.00;99.90